createdAt,value
2022-09-09T11:10:37.094Z,21.13
2022-09-09T11:13:52.490Z,20.97
2022-09-09T11:17:01.631Z,21.10
2022-09-09T11:20:08.082Z,21.14
2022-09-09T11:23:15.781Z,21.29
2022-09-09T11:26:26.417Z,21.47
2022-09-09T11:30:04.883Z,21.41
2022-09-09T11:33:37.060Z,21.34
2022-09-09T11:36:59.689Z,21.11
2022-09-09T11:40:16.625Z,20.93
2022-09-09T11:43:29.062Z,21.05
2022-09-09T11:46:36.465Z,21.30
2022-09-09T11:49:43.711Z,21.40
2022-09-09T11:52:48.400Z,21.31
2022-09-09T11:56:07.875Z,21.38
2022-09-09T11:59:23.117Z,21.28
2022-09-09T12:02:28.567Z,21.01
2022-09-09T12:05:40.411Z,20.93
2022-09-09T12:08:45.872Z,21.06
2022-09-09T12:11:48.721Z,21.24
2022-09-09T12:15:02.480Z,21.39
2022-09-09T12:18:16.786Z,21.44
2022-09-09T12:21:34.507Z,21.41
2022-09-09T12:24:44.539Z,21.35
2022-09-09T12:27:59.283Z,21.51
2022-09-09T12:31:11.095Z,21.39
2022-09-09T12:34:19.879Z,21.19
2022-09-09T12:37:31.279Z,21.18
2022-09-09T12:40:37.087Z,21.07
2022-09-09T12:43:39.838Z,21.01
2022-09-09T12:46:47.722Z,21.06
2022-09-09T12:49:52.182Z,21.29
2022-09-09T12:52:58.109Z,21.47
2022-09-09T12:56:04.277Z,21.67
2022-09-09T12:59:07.029Z,21.68
2022-09-09T13:02:22.058Z,21.53
2022-09-09T13:05:26.654Z,21.32
2022-09-09T13:08:29.588Z,21.13
2022-09-09T13:11:37.732Z,21.01
2022-09-09T13:14:40.658Z,20.93
2022-09-09T13:17:45.803Z,21.34
2022-09-09T13:20:49.746Z,21.23
2022-09-09T13:23:54.191Z,21.01
2022-09-09T13:26:58.541Z,20.82
2022-09-09T13:30:01.661Z,20.98
2022-09-09T13:33:23.554Z,21.23
2022-09-09T13:36:31.808Z,21.18
2022-09-09T13:39:37.361Z,21.33
2022-09-09T13:42:44.113Z,21.44
2022-09-09T13:45:57.434Z,21.31
2022-09-09T13:49:03.770Z,21.33
2022-09-09T13:52:11.654Z,21.25
2022-09-09T13:55:14.770Z,21.15
2022-09-09T13:58:20.162Z,21.03
2022-09-09T14:01:26.403Z,20.97
2022-09-09T14:04:33.745Z,21.02
2022-09-09T14:07:38.804Z,21.06
2022-09-09T14:10:41.659Z,21.05
2022-09-09T14:13:44.385Z,20.93
2022-09-09T14:16:47.131Z,20.75
2022-09-09T14:19:51.591Z,20.58
2022-09-09T14:22:54.527Z,20.46
2022-09-09T14:25:57.428Z,20.32
2022-09-09T14:29:01.855Z,20.32
2022-09-09T14:32:08.314Z,20.22
2022-09-09T14:35:15.108Z,20.12
2022-09-09T14:38:19.188Z,20.01
2022-09-09T14:41:23.686Z,19.98
2022-09-09T14:44:26.860Z,19.90
2022-09-09T14:47:30.230Z,19.76
2022-09-09T14:50:35.873Z,19.73
2022-09-09T14:53:38.898Z,19.63
2022-09-09T14:56:41.802Z,19.54
2022-09-09T14:59:44.574Z,19.39
2022-09-09T15:02:47.337Z,19.31
2022-09-09T15:05:52.255Z,19.22
2022-09-09T15:08:58.719Z,19.27
2022-09-09T15:12:02.852Z,19.18
2022-09-09T15:15:06.692Z,19.06
2022-09-09T15:18:09.426Z,19.09
2022-09-09T15:21:14.506Z,19.01
2022-09-09T15:24:17.924Z,18.97
2022-09-09T15:27:20.860Z,18.97
2022-09-09T15:30:23.675Z,19.05
2022-09-09T15:33:26.432Z,19.07
2022-09-09T15:36:33.066Z,19.01
2022-09-09T15:39:38.919Z,18.98
2022-09-09T15:42:41.865Z,18.97
2022-09-09T15:45:44.716Z,18.79
2022-09-09T15:48:49.066Z,18.74
2022-09-09T15:51:58.387Z,18.76
2022-09-09T15:55:01.671Z,18.71
2022-09-09T15:58:04.444Z,18.51
2022-09-09T16:01:08.747Z,18.50
2022-09-09T16:04:12.117Z,18.45
2022-09-09T16:07:16.439Z,18.46
2022-09-09T16:10:19.443Z,18.37
2022-09-09T16:13:22.159Z,18.32
2022-09-09T16:16:26.856Z,18.30
2022-09-09T16:19:29.638Z,18.29
2022-09-09T16:22:33.733Z,18.19
2022-09-09T16:25:36.587Z,18.28
2022-09-09T16:28:40.090Z,18.30
2022-09-09T16:31:43.815Z,18.32
2022-09-09T16:34:46.843Z,18.24
2022-09-09T16:37:50.951Z,18.25
2022-09-09T16:40:53.830Z,18.00
2022-09-09T16:43:57.724Z,17.95
2022-09-09T16:47:01.453Z,17.96
2022-09-09T16:50:04.301Z,17.91
2022-09-09T16:53:09.751Z,17.92
2022-09-09T16:56:14.596Z,17.92
2022-09-09T16:59:19.302Z,17.86
2022-09-09T17:02:22.453Z,17.76
2022-09-09T17:05:26.155Z,17.72
2022-09-09T17:08:31.290Z,17.76
2022-09-09T17:11:34.607Z,17.68
2022-09-09T17:14:37.698Z,17.66
2022-09-09T17:17:40.444Z,17.52
2022-09-09T17:20:47.210Z,17.53
2022-09-09T17:23:52.212Z,17.46
2022-09-09T17:26:55.450Z,17.34
2022-09-09T17:29:58.449Z,17.22
2022-09-09T17:33:01.407Z,17.18
2022-09-09T17:36:09.431Z,17.12
2022-09-09T17:39:13.770Z,17.06
2022-09-09T17:42:16.815Z,16.98
2022-09-09T17:45:20.206Z,16.83
2022-09-09T17:48:23.061Z,16.90
2022-09-09T17:51:28.887Z,16.87
2022-09-09T17:54:33.294Z,16.64
2022-09-09T17:57:36.423Z,16.66
2022-09-09T18:00:39.225Z,16.59
2022-09-09T18:03:43.568Z,16.68
2022-09-09T18:06:48.765Z,16.36
2022-09-09T18:09:52.996Z,16.10
2022-09-09T18:12:56.993Z,16.07
2022-09-09T18:16:00.137Z,16.01
2022-09-09T18:19:04.421Z,16.12
2022-09-09T18:22:07.921Z,16.03
2022-09-09T18:25:12.267Z,16.02
2022-09-09T18:28:15.239Z,15.91
2022-09-09T18:31:20.671Z,15.65
2022-09-09T18:34:25.711Z,15.72
2022-09-09T18:37:28.555Z,15.81
2022-09-09T18:40:33.525Z,15.64
2022-09-09T18:43:36.424Z,15.59
2022-09-09T18:46:39.917Z,15.61
2022-09-09T18:49:42.829Z,15.71
2022-09-09T18:52:45.698Z,15.82
2022-09-09T18:55:59.291Z,15.86
2022-09-09T18:59:04.015Z,15.42
2022-09-09T19:02:06.773Z,15.52
2022-09-09T19:05:10.039Z,15.57
2022-09-09T19:08:12.939Z,15.52
2022-09-09T19:11:19.604Z,15.56
2022-09-09T19:14:22.917Z,15.57
2022-09-09T19:17:26.538Z,15.26
2022-09-09T19:20:29.404Z,15.18
2022-09-09T19:23:33.191Z,15.32
2022-09-09T19:26:40.582Z,15.27
2022-09-09T19:29:44.565Z,15.29
2022-09-09T19:32:53.709Z,15.23
2022-09-09T19:35:59.284Z,15.14
2022-09-09T19:39:03.308Z,15.25
2022-09-09T19:42:07.545Z,15.21
2022-09-09T19:45:10.893Z,15.22
2022-09-09T19:48:14.370Z,15.31
2022-09-09T19:51:19.495Z,15.27
2022-09-09T19:54:22.360Z,15.15
2022-09-09T19:57:30.301Z,15.17
2022-09-09T20:00:34.442Z,15.33
2022-09-09T20:03:38.261Z,15.38
2022-09-09T20:06:42.775Z,15.48
2022-09-09T20:09:45.725Z,15.49
2022-09-09T20:12:49.857Z,15.41
2022-09-09T20:16:00.380Z,15.41
2022-09-09T20:19:06.113Z,15.37
2022-09-09T20:22:09.228Z,15.36
2022-09-09T20:25:12.001Z,15.38
2022-09-09T20:28:16.215Z,15.42
2022-09-09T20:31:22.582Z,15.41
2022-09-09T20:34:27.345Z,15.41
2022-09-09T20:37:31.903Z,15.31
2022-09-09T20:40:37.167Z,15.21
2022-09-09T20:43:42.212Z,15.36
2022-09-09T20:46:48.955Z,15.34
2022-09-09T20:49:52.082Z,15.34
2022-09-09T20:52:55.062Z,15.28
2022-09-09T20:56:00.986Z,15.41
2022-09-09T20:59:10.303Z,15.38
2022-09-09T21:02:13.308Z,15.48
2022-09-09T21:05:19.630Z,15.33
2022-09-09T21:08:25.650Z,15.20
2022-09-09T21:11:28.662Z,15.36
2022-09-09T21:14:33.028Z,15.25
2022-09-09T21:17:35.949Z,15.20
2022-09-09T21:20:38.836Z,15.20
2022-09-09T21:23:42.147Z,15.20
2022-09-09T21:26:45.004Z,15.10
2022-09-09T21:29:50.091Z,15.04
2022-09-09T21:32:53.825Z,15.02
2022-09-09T21:36:02.958Z,14.83
2022-09-09T21:39:06.400Z,14.81
2022-09-09T21:42:09.668Z,14.80
2022-09-09T21:45:14.919Z,14.67
2022-09-09T21:48:19.889Z,14.62
2022-09-09T21:51:23.466Z,14.70
2022-09-09T21:54:28.674Z,14.57
2022-09-09T21:57:31.739Z,14.60
2022-09-09T22:00:36.553Z,14.69
2022-09-09T22:03:40.510Z,14.63
2022-09-09T22:06:43.987Z,14.49
2022-09-09T22:09:47.172Z,14.45
2022-09-09T22:12:50.324Z,14.37
2022-09-09T22:15:58.403Z,14.18
2022-09-09T22:19:02.589Z,14.00
2022-09-09T22:22:05.686Z,13.96
2022-09-09T22:25:09.490Z,13.98
2022-09-09T22:28:15.863Z,13.93
2022-09-09T22:31:20.859Z,13.88
2022-09-09T22:34:24.165Z,13.99
2022-09-09T22:37:27.012Z,13.98
2022-09-09T22:40:29.994Z,14.06
2022-09-09T22:43:34.019Z,13.94
2022-09-09T22:46:38.552Z,13.99
2022-09-09T22:49:42.001Z,14.02
2022-09-09T22:52:44.868Z,14.01
2022-09-09T22:55:58.590Z,13.83
2022-09-09T22:59:01.491Z,13.82
2022-09-09T23:02:05.889Z,13.93
2022-09-09T23:05:09.584Z,13.90
2022-09-09T23:08:12.804Z,13.78
2022-09-09T23:11:16.090Z,13.85
2022-09-09T23:14:19.059Z,13.78
2022-09-09T23:17:23.266Z,13.81
2022-09-09T23:20:26.619Z,13.81
2022-09-09T23:23:29.684Z,13.79
2022-09-09T23:26:33.034Z,13.72
2022-09-09T23:29:35.888Z,13.70
2022-09-09T23:32:40.126Z,13.74
2022-09-09T23:35:43.872Z,13.56
2022-09-09T23:38:47.464Z,13.44
2022-09-09T23:41:51.303Z,13.47
2022-09-09T23:44:54.116Z,13.36
2022-09-09T23:47:58.240Z,13.25
2022-09-09T23:51:01.089Z,13.30
2022-09-09T23:54:06.283Z,13.25
2022-09-09T23:57:09.095Z,13.32
